Time;durP1;ratioP1;P1;durP2;ratioP2;P2;SDS_P1;SDS_P2;PMS_P1;PMS_P2;Temp;Humidity;BMP_temperature;BMP_pressure;BME280_temperature;BME280_humidity;BME280_pressure;Samples;Min_cycle;Max_cycle;Signal;HPM_P1;HPM_P2
2023/01/25 00:00:55;;;;;;;27.52;20.23;;;0.90;62.00;;;;;;5073989;28;20763;-62
2023/01/25 00:03:21;;;;;;;23.83;18.75;;;1.10;67.40;;;;;;5078361;28;20422;-62
2023/01/25 00:05:48;;;;;;;25.52;19.80;;;0.90;49.00;;;;;;5077762;28;20400;-60
2023/01/25 00:08:15;;;;;;;27.35;20.55;;;0.90;51.80;;;;;;5080369;28;20414;-61
2023/01/25 00:10:42;;;;;;;26.90;20.77;;;1.00;52.80;;;;;;5077450;28;20422;-60
2023/01/25 00:13:10;;;;;;;27.23;20.83;;;0.90;53.00;;;;;;5076901;28;20423;-60
2023/01/25 00:15:36;;;;;;;24.60;19.80;;;0.90;59.30;;;;;;5079051;28;20416;-62
2023/01/25 00:18:03;;;;;;;26.10;19.88;;;1.00;57.30;;;;;;5079885;28;20427;-62
2023/01/25 00:20:30;;;;;;;24.13;19.17;;;0.80;52.80;;;;;;5079123;28;20414;-62
2023/01/25 00:22:57;;;;;;;24.25;19.05;;;0.90;56.60;;;;;;5079359;28;20425;-62
2023/01/25 00:25:23;;;;;;;25.75;19.95;;;0.90;53.70;;;;;;5081573;28;20472;-58
2023/01/25 00:27:50;;;;;;;25.25;20.13;;;0.70;56.10;;;;;;5080280;28;20414;-61
2023/01/25 00:30:18;;;;;;;26.77;20.85;;;0.70;60.70;;;;;;5079393;28;20415;-59
2023/01/25 00:32:52;;;;;;;28.95;21.95;;;0.50;60.20;;;;;;5079816;28;20417;-62
2023/01/25 00:35:19;;;;;;;28.70;22.17;;;0.50;68.60;;;;;;5077819;28;20905;-59
2023/01/25 00:37:49;;;;;;;30.48;21.92;;;0.30;68.70;;;;;;5079339;28;20867;-62
2023/01/25 00:40:16;;;;;;;29.10;21.35;;;0.30;86.00;;;;;;5075720;28;20416;-62
2023/01/25 00:42:43;;;;;;;27.23;21.58;;;0.40;92.80;;;;;;5079322;28;20418;-61
2023/01/25 00:45:12;;;;;;;28.05;21.85;;;0.60;95.30;;;;;;5079163;28;20413;-62
2023/01/25 00:47:40;;;;;;;28.95;21.70;;;0.40;93.00;;;;;;5077962;28;20419;-62
2023/01/25 00:50:08;;;;;;;28.40;21.35;;;0.40;94.00;;;;;;5078146;28;20894;-59
2023/01/25 00:52:35;;;;;;;26.92;20.65;;;0.60;94.10;;;;;;5081181;28;20433;-59
2023/01/25 00:55:02;;;;;;;27.98;20.88;;;0.60;87.20;;;;;;5079367;28;20423;-59
2023/01/25 00:57:29;;;;;;;27.80;21.30;;;0.70;82.40;;;;;;5078179;28;20452;-59
2023/01/25 00:59:55;;;;;;;28.52;21.48;;;0.50;62.60;;;;;;5075145;28;20471;-60
2023/01/25 01:02:22;;;;;;;30.43;23.03;;;0.10;77.00;;;;;;5079535;28;20424;-54
2023/01/25 01:04:50;;;;;;;28.00;22.23;;;0.20;96.00;;;;;;5079096;28;20445;-59
2023/01/25 01:07:17;;;;;;;29.67;21.23;;;0.50;95.80;;;;;;5079804;28;20419;-62
2023/01/25 01:09:43;;;;;;;27.35;21.02;;;0.60;93.10;;;;;;5079102;28;20419;-59
2023/01/25 01:12:10;;;;;;;26.25;19.58;;;0.70;91.40;;;;;;5080102;28;20886;-59
2023/01/25 01:14:37;;;;;;;28.95;22.08;;;0.60;76.60;;;;;;5073289;28;20488;-61
2023/01/25 01:17:03;;;;;;;29.08;21.73;;;0.40;77.10;;;;;;5083554;28;20418;-60
2023/01/25 01:19:30;;;;;;;29.70;22.67;;;0.30;81.80;;;;;;5075646;28;20420;-61
2023/01/25 01:21:58;;;;;;;30.63;22.83;;;0.30;89.60;;;;;;5077908;28;20503;-62
2023/01/25 01:24:25;;;;;;;29.30;21.92;;;0.30;91.80;;;;;;5079841;28;20891;-62
2023/01/25 01:26:52;;;;;;;30.10;23.17;;;0.20;92.70;;;;;;5078787;28;20481;-62
2023/01/25 01:29:18;;;;;;;29.48;22.30;;;0.20;95.90;;;;;;5076802;28;20424;-62
2023/01/25 01:31:45;;;;;;;28.73;21.95;;;0.20;99.90;;;;;;5073708;28;20435;-62
2023/01/25 01:34:14;;;;;;;31.10;23.10;;;0.30;99.40;;;;;;5081939;28;20474;-60
2023/01/25 01:36:40;;;;;;;33.15;23.77;;;0.10;98.80;;;;;;5079571;28;21004;-61
2023/01/25 01:39:09;;;;;;;31.25;23.40;;;0.10;99.90;;;;;;5079939;28;20433;-60
2023/01/25 01:41:37;;;;;;;33.08;23.60;;;0.00;99.90;;;;;;5078953;28;20417;-61
2023/01/25 01:44:03;;;;;;;29.45;22.42;;;0.20;99.90;;;;;;5077292;28;20909;-61
2023/01/25 01:46:33;;;;;;;27.95;21.52;;;0.30;99.90;;;;;;5079831;28;20521;-62
2023/01/25 01:49:03;;;;;;;31.20;23.20;;;0.20;99.90;;;;;;5077104;28;20934;-60
2023/01/25 01:51:42;;;;;;;35.08;24.65;;;-0.20;99.90;;;;;;5079797;28;20415;-61
2023/01/25 01:54:16;;;;;;;34.20;24.67;;;-0.20;99.90;;;;;;5073935;28;20983;-61
2023/01/25 01:56:51;;;;;;;29.40;22.00;;;0.00;99.90;;;;;;5081460;28;20467;-61
2023/01/25 01:59:18;;;;;;;30.27;22.00;;;0.20;99.90;;;;;;5077010;28;20431;-59
2023/01/25 02:01:46;;;;;;;28.88;22.08;;;0.10;99.90;;;;;;5079606;28;20417;-60
2023/01/25 02:04:14;;;;;;;30.98;23.02;;;0.30;99.90;;;;;;5077419;28;20414;-61
2023/01/25 02:06:46;;;;;;;32.30;23.55;;;0.20;99.90;;;;;;5081860;28;20768;-60
2023/01/25 02:09:15;;;;;;;33.92;24.48;;;0.30;99.90;;;;;;5074658;28;20442;-61
2023/01/25 02:11:43;;;;;;;36.13;25.35;;;0.00;99.80;;;;;;5078039;28;20818;-61
2023/01/25 02:14:10;;;;;;;33.92;24.42;;;-0.20;99.90;;;;;;5075935;28;20467;-59
2023/01/25 02:16:37;;;;;;;31.60;23.42;;;0.00;99.90;;;;;;5077087;28;20411;-62
2023/01/25 02:19:04;;;;;;;33.97;24.52;;;-0.10;99.90;;;;;;5076748;28;20432;-61
2023/01/25 02:21:39;;;;;;;33.38;24.27;;;0.00;99.90;;;;;;5075868;28;20473;-62
2023/01/25 02:24:11;;;;;;;34.92;25.05;;;0.10;99.90;;;;;;5077444;28;20468;-60
2023/01/25 02:26:40;;;;;;;34.80;24.58;;;0.00;99.90;;;;;;5085438;28;20421;-61
2023/01/25 02:29:08;;;;;;;35.75;25.38;;;0.10;99.90;;;;;;5078638;28;20424;-59
2023/01/25 02:31:35;;;;;;;33.15;23.95;;;0.20;99.90;;;;;;5081612;28;20829;-62
2023/01/25 02:34:02;;;;;;;34.20;24.50;;;0.40;99.90;;;;;;5081731;28;20880;-60
2023/01/25 02:36:30;;;;;;;36.17;25.02;;;0.30;99.90;;;;;;5082912;28;20415;-60
2023/01/25 02:39:00;;;;;;;35.90;25.27;;;0.20;99.90;;;;;;5074072;28;20470;-60
2023/01/25 02:41:32;;;;;;;35.47;25.23;;;0.10;99.90;;;;;;5078946;28;20405;-62
2023/01/25 02:44:03;;;;;;;35.13;24.45;;;-0.10;99.90;;;;;;5078614;28;20900;-61
2023/01/25 02:46:32;;;;;;;35.35;25.02;;;0.10;99.90;;;;;;5080737;28;20446;-62
2023/01/25 02:49:00;;;;;;;36.08;25.58;;;0.30;99.90;;;;;;5079671;28;20420;-62
2023/01/25 02:51:29;;;;;;;33.83;23.97;;;0.30;99.90;;;;;;5081186;28;20506;-59
2023/01/25 02:53:56;;;;;;;37.00;24.45;;;0.40;99.90;;;;;;5078115;28;20418;-58
2023/01/25 02:56:23;;;;;;;39.43;26.60;;;0.10;99.90;;;;;;5084017;28;20406;-60
2023/01/25 02:58:51;;;;;;;40.42;27.02;;;-0.20;99.90;;;;;;5075570;28;20434;-62
2023/01/25 03:01:19;;;;;;;38.25;26.15;;;-0.10;99.90;;;;;;5079227;28;20417;-61
2023/01/25 03:03:46;;;;;;;34.92;24.58;;;0.10;99.90;;;;;;5081141;28;21124;-62
2023/01/25 03:06:13;;;;;;;35.45;23.67;;;0.20;99.90;;;;;;5076606;28;20465;-61
2023/01/25 03:08:40;;;;;;;34.58;23.45;;;0.30;99.90;;;;;;5082696;28;20404;-62
2023/01/25 03:11:07;;;;;;;33.23;23.60;;;0.30;99.90;;;;;;5080605;28;20417;-61
2023/01/25 03:13:35;;;;;;;37.85;24.98;;;0.30;99.90;;;;;;5083643;28;20429;-61
2023/01/25 03:16:05;;;;;;;37.35;25.15;;;0.10;99.90;;;;;;5080038;28;20463;-62
2023/01/25 03:18:33;;;;;;;35.17;24.42;;;0.10;99.90;;;;;;5078174;28;20429;-61
2023/01/25 03:21:05;;;;;;;39.22;25.98;;;0.00;99.90;;;;;;5085151;28;20415;-62
2023/01/25 03:23:32;;;;;;;37.95;25.10;;;-0.30;99.90;;;;;;5082072;28;20415;-62
2023/01/25 03:26:05;;;;;;;39.63;26.10;;;-0.20;99.90;;;;;;5084194;28;20406;-62
2023/01/25 03:28:32;;;;;;;38.85;25.20;;;-0.40;99.90;;;;;;5079674;28;20432;-62
2023/01/25 03:30:59;;;;;;;37.72;25.15;;;-0.30;99.90;;;;;;5077294;28;20416;-62
2023/01/25 03:33:25;;;;;;;39.65;26.15;;;-0.30;99.90;;;;;;5083382;28;20414;-60
2023/01/25 03:35:54;;;;;;;40.17;25.67;;;-0.40;99.90;;;;;;5084098;28;20533;-61
2023/01/25 03:38:21;;;;;;;39.80;25.87;;;-0.40;99.90;;;;;;5077477;28;20418;-61
2023/01/25 03:40:48;;;;;;;43.47;27.55;;;-0.40;99.90;;;;;;5079128;28;20451;-62
2023/01/25 03:43:15;;;;;;;44.55;27.75;;;-0.50;99.90;;;;;;5084007;28;20471;-61
2023/01/25 03:45:42;;;;;;;40.53;26.65;;;-0.50;99.90;;;;;;5079392;28;20431;-60
2023/01/25 03:48:09;;;;;;;38.42;25.77;;;-0.40;99.90;;;;;;5081446;28;20411;-60
2023/01/25 03:50:36;;;;;;;44.40;27.85;;;-0.40;99.90;;;;;;5077532;28;20471;-61
2023/01/25 03:53:08;;;;;;;43.15;27.48;;;-0.60;99.90;;;;;;5079771;28;20821;-61
2023/01/25 03:55:35;;;;;;;41.78;27.38;;;-0.50;99.90;;;;;;5075593;28;20413;-61
2023/01/25 03:58:02;;;;;;;42.42;27.33;;;-0.40;99.90;;;;;;5083098;28;20824;-61
2023/01/25 04:00:29;;;;;;;40.95;24.95;;;-0.30;99.90;;;;;;5079448;28;20437;-61
2023/01/25 04:02:55;;;;;;;38.80;24.83;;;-0.10;99.90;;;;;;5082085;28;20416;-58
2023/01/25 04:05:22;;;;;;;41.83;25.65;;;-0.10;99.90;;;;;;5080447;28;20414;-60
2023/01/25 04:07:49;;;;;;;40.78;24.27;;;-0.20;99.90;;;;;;5076261;28;20431;-60
2023/01/25 04:10:17;;;;;;;37.42;22.60;;;-0.30;99.90;;;;;;5077543;28;20425;-59
2023/01/25 04:12:43;;;;;;;33.97;21.30;;;-0.10;99.90;;;;;;5079304;28;20815;-59
2023/01/25 04:15:11;;;;;;;37.15;22.20;;;0.00;99.90;;;;;;5079825;28;20423;-60
2023/01/25 04:17:37;;;;;;;37.92;23.05;;;0.00;99.90;;;;;;5065835;28;20908;-58
2023/01/25 04:20:05;;;;;;;38.13;23.27;;;0.00;99.90;;;;;;5076866;28;20427;-58
2023/01/25 04:22:32;;;;;;;39.25;23.15;;;-0.10;99.90;;;;;;5081451;28;20417;-62
2023/01/25 04:24:58;;;;;;;42.80;23.13;;;-0.40;99.90;;;;;;5083103;28;20419;-59
2023/01/25 04:27:26;;;;;;;36.72;20.88;;;-0.40;99.90;;;;;;5080887;28;20463;-59
2023/01/25 04:29:53;;;;;;;38.00;22.17;;;-0.40;99.90;;;;;;5079187;28;20412;-60
2023/01/25 04:32:19;;;;;;;34.43;19.57;;;-0.30;99.90;;;;;;5082275;28;20460;-62
2023/01/25 04:34:46;;;;;;;34.67;19.98;;;0.00;99.90;;;;;;5077593;28;20452;-60
2023/01/25 04:37:13;;;;;;;37.10;20.80;;;0.00;99.90;;;;;;5076365;28;20461;-62
2023/01/25 04:39:39;;;;;;;37.80;21.08;;;0.00;99.90;;;;;;5080736;28;21003;-61
2023/01/25 04:42:06;;;;;;;37.07;19.83;;;0.10;99.90;;;;;;5079404;28;21046;-61
2023/01/25 04:44:34;;;;;;;38.88;21.10;;;-0.10;99.90;;;;;;5077618;28;20921;-59
2023/01/25 04:47:02;;;;;;;39.92;21.02;;;-0.30;99.90;;;;;;5078708;28;20421;-59
2023/01/25 04:49:29;;;;;;;40.20;20.98;;;-0.20;99.90;;;;;;5074746;28;20417;-60
2023/01/25 04:51:55;;;;;;;44.65;21.70;;;-0.50;99.90;;;;;;5078651;28;20426;-60
2023/01/25 04:54:22;;;;;;;43.30;21.58;;;-0.50;99.90;;;;;;5077330;28;20451;-57
2023/01/25 04:56:49;;;;;;;42.58;21.88;;;-0.30;99.90;;;;;;5080992;28;20415;-59
2023/01/25 04:59:15;;;;;;;44.75;22.30;;;-0.10;99.90;;;;;;5079098;28;20423;-56
2023/01/25 05:01:43;;;;;;;42.55;22.45;;;-0.10;99.90;;;;;;5076374;28;20438;-61
2023/01/25 05:04:10;;;;;;;47.00;25.05;;;0.10;99.90;;;;;;5079740;28;20814;-60
2023/01/25 05:06:37;;;;;;;46.30;22.80;;;0.10;99.90;;;;;;5077108;28;20421;-60
2023/01/25 05:09:04;;;;;;;45.83;23.23;;;0.10;99.90;;;;;;5081111;28;20404;-57
2023/01/25 05:11:30;;;;;;;45.35;22.90;;;0.20;99.90;;;;;;5078273;28;20808;-62
2023/01/25 05:13:57;;;;;;;46.42;23.48;;;0.10;99.90;;;;;;5080122;28;20460;-61
2023/01/25 05:16:24;;;;;;;53.92;24.80;;;0.00;99.90;;;;;;5071522;28;20416;-60
2023/01/25 05:18:52;;;;;;;51.78;25.25;;;-0.30;99.90;;;;;;5076333;28;20425;-58
2023/01/25 05:24:03;;;;;;;52.05;25.40;;;-0.10;99.90;;;;;;5075027;28;20398;-58
2023/01/25 05:29:14;;;;;;;53.00;25.30;;;-0.20;99.90;;;;;;5074726;28;20526;-58
2023/01/25 05:31:40;;;;;;;53.10;25.63;;;-0.10;99.90;;;;;;5073539;28;20472;-58
2023/01/25 05:34:09;;;;;;;54.63;25.70;;;-0.10;99.90;;;;;;5075330;28;20411;-60
2023/01/25 05:36:36;;;;;;;56.83;25.92;;;-0.20;99.90;;;;;;5074876;28;20414;-61
2023/01/25 05:39:05;;;;;;;60.13;26.02;;;-0.30;99.90;;;;;;5080586;28;21108;-60
2023/01/25 05:41:32;;;;;;;57.20;27.35;;;-0.20;99.90;;;;;;5077645;28;20421;-61
2023/01/25 05:43:58;;;;;;;53.42;25.75;;;-0.10;99.90;;;;;;5080342;28;20407;-61
2023/01/25 05:46:27;;;;;;;48.88;24.17;;;0.10;99.90;;;;;;5072989;28;20423;-61
2023/01/25 05:48:54;;;;;;;47.95;24.90;;;0.30;99.90;;;;;;5080494;28;20406;-61
2023/01/25 05:51:22;;;;;;;49.30;24.25;;;0.20;99.90;;;;;;5074001;28;20829;-61
2023/01/25 05:53:49;;;;;;;52.58;24.85;;;0.10;99.90;;;;;;5075136;28;20407;-61
2023/01/25 05:56:16;;;;;;;49.85;23.60;;;0.20;99.90;;;;;;5074364;28;20423;-58
2023/01/25 05:58:42;;;;;;;49.42;23.90;;;0.10;99.90;;;;;;5083854;28;20430;-58
2023/01/25 06:01:09;;;;;;;46.45;22.83;;;0.20;99.90;;;;;;5077677;28;20417;-56
2023/01/25 06:03:36;;;;;;;44.05;22.80;;;0.40;99.90;;;;;;5085267;28;20416;-59
2023/01/25 06:06:02;;;;;;;51.08;26.20;;;0.40;99.90;;;;;;5079120;28;20413;-59
2023/01/25 06:08:31;;;;;;;48.17;24.30;;;0.40;99.90;;;;;;5084726;28;20484;-58
2023/01/25 06:10:58;;;;;;;51.13;26.10;;;0.60;99.90;;;;;;5078039;28;20424;-62
2023/01/25 06:13:25;;;;;;;50.67;26.48;;;0.30;99.90;;;;;;5074521;28;20415;-65
2023/01/25 06:15:52;;;;;;;48.83;26.87;;;0.50;99.90;;;;;;5076830;28;20488;-66
2023/01/25 06:18:19;;;;;;;54.58;26.75;;;0.60;99.90;;;;;;5079388;28;20492;-65
2023/01/25 06:20:46;;;;;;;51.55;26.83;;;0.60;99.90;;;;;;5077038;28;20425;-65
2023/01/25 06:23:13;;;;;;;49.38;27.00;;;0.60;99.90;;;;;;5082714;28;20453;-65
2023/01/25 06:25:41;;;;;;;52.50;27.08;;;0.60;99.90;;;;;;5081574;28;20424;-65
2023/01/25 06:28:08;;;;;;;49.17;25.15;;;0.60;99.90;;;;;;5082349;28;20413;-64
2023/01/25 06:30:35;;;;;;;50.75;26.35;;;0.70;99.90;;;;;;5079163;28;20415;-67
2023/01/25 06:33:02;;;;;;;48.25;24.52;;;0.50;99.90;;;;;;5083142;28;20781;-68
2023/01/25 06:35:30;;;;;;;48.78;24.70;;;0.60;99.90;;;;;;5081561;28;20469;-66
2023/01/25 06:37:57;;;;;;;50.63;25.17;;;0.50;99.90;;;;;;5082012;28;20421;-64
2023/01/25 06:40:25;;;;;;;53.47;26.20;;;0.40;99.90;;;;;;5077708;28;20449;-65
2023/01/25 06:42:53;;;;;;;50.03;25.67;;;0.50;99.90;;;;;;5083800;28;20876;-64
2023/01/25 06:45:20;;;;;;;52.42;26.52;;;0.50;99.90;;;;;;5078948;28;20430;-63
2023/01/25 06:47:49;;;;;;;50.05;25.95;;;0.60;99.90;;;;;;5079564;28;20435;-65
2023/01/25 06:50:16;;;;;;;50.10;26.23;;;0.60;99.90;;;;;;5078991;28;20427;-64
2023/01/25 06:52:42;;;;;;;49.50;25.80;;;0.60;99.90;;;;;;5078554;28;20407;-65
2023/01/25 06:55:12;;;;;;;50.38;25.40;;;0.50;99.90;;;;;;5081595;28;20430;-65
2023/01/25 06:57:39;;;;;;;50.08;25.83;;;0.40;99.90;;;;;;5083547;28;20919;-64
2023/01/25 07:00:08;;;;;;;53.30;26.95;;;0.30;99.90;;;;;;5081286;28;20427;-64
2023/01/25 07:02:36;;;;;;;55.00;26.20;;;0.30;99.90;;;;;;5084238;28;20417;-65
2023/01/25 07:05:03;;;;;;;55.70;27.23;;;0.30;99.90;;;;;;5078660;28;20407;-65
2023/01/25 07:07:29;;;;;;;55.20;26.38;;;0.20;99.90;;;;;;5078241;28;20463;-67
2023/01/25 07:09:57;;;;;;;56.33;27.27;;;0.30;99.90;;;;;;5073384;28;20408;-63
2023/01/25 07:12:25;;;;;;;53.65;25.95;;;0.40;99.90;;;;;;5077222;28;20443;-62
2023/01/25 07:14:51;;;;;;;57.78;28.55;;;0.30;99.90;;;;;;5084162;28;20410;-62
2023/01/25 07:17:19;;;;;;;74.53;30.65;;;-0.40;99.90;;;;;;5077406;28;20412;-62
2023/01/25 07:19:47;;;;;;;75.57;32.97;;;-0.30;99.90;;;;;;5081548;28;20419;-61
2023/01/25 07:22:13;;;;;;;85.03;35.38;;;-0.50;99.90;;;;;;5072397;28;20417;-61
2023/01/25 07:24:40;;;;;;;86.30;35.53;;;-0.50;99.90;;;;;;5081813;28;20417;-62
2023/01/25 07:27:07;;;;;;;81.90;34.20;;;-0.50;99.90;;;;;;5079748;28;20414;-63
2023/01/25 07:29:33;;;;;;;92.05;35.40;;;-0.40;99.90;;;;;;5084008;28;20461;-62
2023/01/25 07:32:00;;;;;;;85.50;35.92;;;-0.50;99.90;;;;;;5082488;28;20420;-64
2023/01/25 07:34:28;;;;;;;75.78;34.10;;;-0.20;99.90;;;;;;5086973;28;20415;-63
2023/01/25 07:36:55;;;;;;;72.90;33.58;;;0.00;99.90;;;;;;5081571;28;20492;-63
2023/01/25 07:39:22;;;;;;;71.30;33.38;;;-0.10;99.90;;;;;;5080578;28;20971;-60
2023/01/25 07:41:48;;;;;;;73.22;35.08;;;0.00;99.90;;;;;;5071656;28;20467;-62
2023/01/25 07:44:15;;;;;;;76.72;35.28;;;-0.10;99.90;;;;;;5082525;28;20402;-63
2023/01/25 07:46:42;;;;;;;72.75;34.80;;;0.00;99.90;;;;;;5080452;28;20772;-61
2023/01/25 07:49:08;;;;;;;77.90;35.35;;;0.00;99.90;;;;;;5080950;28;20420;-64
2023/01/25 07:51:36;;;;;;;75.45;35.53;;;-0.20;99.90;;;;;;5077979;28;20449;-63
2023/01/25 07:54:04;;;;;;;67.30;33.35;;;0.00;99.90;;;;;;5081584;28;20409;-62
2023/01/25 07:56:32;;;;;;;67.25;33.92;;;0.20;99.90;;;;;;5078341;28;20918;-62
2023/01/25 07:59:01;;;;;;;60.30;31.08;;;0.30;99.90;;;;;;5080357;28;20469;-62
2023/01/25 08:01:29;;;;;;;60.60;29.70;;;0.30;99.90;;;;;;5070322;28;20471;-62
2023/01/25 08:03:57;;;;;;;66.93;32.83;;;0.00;99.90;;;;;;5078329;28;20466;-59
2023/01/25 08:06:26;;;;;;;68.33;33.10;;;0.20;99.90;;;;;;5083135;28;20417;-65
2023/01/25 08:08:54;;;;;;;63.47;31.65;;;0.10;99.90;;;;;;5065901;28;20427;-62
2023/01/25 08:11:24;;;;;;;64.75;30.80;;;0.30;99.90;;;;;;5076398;28;20970;-66
2023/01/25 08:13:51;;;;;;;77.10;33.50;;;-0.10;99.90;;;;;;5074034;28;20412;-63
2023/01/25 08:16:19;;;;;;;70.90;33.08;;;-0.10;99.90;;;;;;5078144;28;20955;-62
2023/01/25 08:18:47;;;;;;;73.05;34.03;;;0.10;99.90;;;;;;5075956;28;20425;-60
2023/01/25 08:21:14;;;;;;;70.80;33.95;;;0.00;99.90;;;;;;5077355;28;20480;-62
2023/01/25 08:23:41;;;;;;;63.53;30.77;;;0.20;99.90;;;;;;5078477;28;20484;-62
2023/01/25 08:26:10;;;;;;;68.93;32.80;;;0.30;99.90;;;;;;5078567;28;20416;-62
2023/01/25 08:28:37;;;;;;;80.80;33.63;;;0.40;99.90;;;;;;5078419;28;20422;-64
2023/01/25 08:31:06;;;;;;;83.30;35.33;;;-0.10;99.90;;;;;;5074403;28;20414;-62
2023/01/25 08:33:33;;;;;;;76.55;34.17;;;-0.10;99.90;;;;;;5080056;28;20471;-62
2023/01/25 08:36:00;;;;;;;74.22;33.10;;;0.00;99.90;;;;;;5079326;28;20902;-64
2023/01/25 08:38:26;;;;;;;76.65;35.17;;;-0.20;99.90;;;;;;5080590;28;20440;-64
2023/01/25 08:40:53;;;;;;;72.30;34.20;;;-0.10;99.90;;;;;;5077584;28;20471;-63
2023/01/25 08:43:21;;;;;;;64.35;32.80;;;0.10;99.90;;;;;;5079786;28;20411;-63
2023/01/25 08:45:55;;;;;;;62.45;31.33;;;0.20;99.90;;;;;;5077959;28;20440;-65
2023/01/25 08:48:22;;;;;;;65.73;31.40;;;0.30;99.90;;;;;;5078539;28;20492;-64
2023/01/25 08:50:48;;;;;;;67.93;31.35;;;0.30;99.90;;;;;;5074730;28;20410;-60
2023/01/25 08:53:15;;;;;;;67.53;31.73;;;0.40;99.90;;;;;;5075503;28;20411;-69
2023/01/25 08:55:42;;;;;;;63.95;31.17;;;0.30;99.90;;;;;;5071334;28;20938;-64
2023/01/25 08:58:10;;;;;;;74.88;33.35;;;0.40;99.90;;;;;;5073776;28;20446;-64
2023/01/25 09:00:38;;;;;;;79.50;34.55;;;0.10;99.90;;;;;;5074999;28;20431;-62
2023/01/25 09:03:06;;;;;;;81.18;35.85;;;0.00;99.90;;;;;;5081190;28;20788;-66
2023/01/25 09:05:34;;;;;;;77.65;35.88;;;-0.20;99.90;;;;;;5077584;28;20446;-64
2023/01/25 09:08:01;;;;;;;75.68;35.58;;;0.00;99.90;;;;;;5069417;28;20451;-65
2023/01/25 09:10:30;;;;;;;66.22;32.25;;;0.20;99.90;;;;;;5071225;28;21288;-64
2023/01/25 09:12:57;;;;;;;77.15;32.85;;;0.20;99.90;;;;;;5081541;28;20882;-64
2023/01/25 09:15:24;;;;;;;65.95;31.40;;;0.30;99.90;;;;;;5075709;28;20417;-64
2023/01/25 09:17:52;;;;;;;65.20;32.17;;;0.20;99.90;;;;;;5073454;28;20415;-64
2023/01/25 09:20:20;;;;;;;61.70;29.52;;;0.30;99.90;;;;;;5077263;28;20961;-64
2023/01/25 09:22:47;;;;;;;61.05;30.27;;;0.40;99.90;;;;;;5079734;28;20415;-65
2023/01/25 09:25:14;;;;;;;74.82;31.38;;;0.40;99.90;;;;;;5078461;28;20435;-68
2023/01/25 09:27:41;;;;;;;67.32;31.73;;;0.30;99.90;;;;;;5069038;28;20415;-65
2023/01/25 09:30:10;;;;;;;71.75;31.45;;;0.40;99.90;;;;;;5079187;28;20407;-66
2023/01/25 09:32:37;;;;;;;90.88;32.67;;;0.40;99.90;;;;;;5080568;28;20417;-66
2023/01/25 09:35:06;;;;;;;77.75;33.70;;;0.10;99.90;;;;;;5080079;28;20969;-65
2023/01/25 09:37:33;;;;;;;73.28;34.00;;;0.20;99.90;;;;;;5075629;28;20448;-62
2023/01/25 09:40:00;;;;;;;79.30;35.00;;;0.20;99.90;;;;;;5075328;28;20489;-63
2023/01/25 09:42:43;;;;;;;85.05;34.63;;;0.10;99.90;;;;;;5075684;28;20505;-65
2023/01/25 09:45:17;;;;;;;81.32;33.95;;;0.10;99.90;;;;;;5074047;28;20412;-64
2023/01/25 09:47:54;;;;;;;82.05;35.28;;;0.10;99.90;;;;;;5072782;28;20413;-64
2023/01/25 09:50:33;;;;;;;81.82;34.15;;;0.10;99.90;;;;;;5076330;28;20493;-63
2023/01/25 09:53:23;;;;;;;75.38;33.58;;;0.10;99.90;;;;;;5076414;28;20490;-61
2023/01/25 09:55:52;;;;;;;74.85;34.85;;;0.40;99.90;;;;;;5071228;28;20525;-62
2023/01/25 09:58:21;;;;;;;65.75;32.00;;;0.60;99.90;;;;;;5077039;28;20624;-61
2023/01/25 10:00:52;;;;;;;63.20;29.70;;;0.70;99.90;;;;;;5073305;28;20427;-64
2023/01/25 10:03:23;;;;;;;50.70;25.42;;;0.90;99.90;;;;;;5077678;28;20415;-70
2023/01/25 10:05:56;;;;;;;50.80;24.83;;;0.80;99.90;;;;;;5073600;28;20423;-65
2023/01/25 10:08:30;;;;;;;50.85;26.17;;;0.90;99.90;;;;;;5079534;28;20421;-67
2023/01/25 10:11:03;;;;;;;47.13;24.05;;;0.90;99.90;;;;;;5071083;28;20454;-63
2023/01/25 10:13:30;;;;;;;44.25;21.88;;;0.70;99.90;;;;;;5077126;28;20768;-64
2023/01/25 10:16:03;;;;;;;46.67;22.70;;;0.00;99.90;;;;;;5076048;28;20765;-64
2023/01/25 10:18:36;;;;;;;45.80;23.08;;;0.20;99.90;;;;;;5069345;28;21075;-64
2023/01/25 10:21:09;;;;;;;45.67;21.63;;;0.60;99.90;;;;;;5076805;28;20428;-64
2023/01/25 10:24:00;;;;;;;42.22;21.27;;;0.20;99.90;;;;;;5077585;28;20415;-63
2023/01/25 10:26:29;;;;;;;50.22;22.30;;;0.30;99.90;;;;;;5076016;28;20426;-62
2023/01/25 10:29:02;;;;;;;52.78;22.20;;;0.30;99.90;;;;;;5076337;28;20516;-61
2023/01/25 10:31:37;;;;;;;53.80;23.95;;;0.40;99.90;;;;;;5077437;28;20410;-64
2023/01/25 10:34:16;;;;;;;48.95;23.70;;;0.60;99.90;;;;;;5082406;28;20414;-64
2023/01/25 10:36:47;;;;;;;50.85;24.15;;;0.80;99.90;;;;;;5074298;28;20467;-65
2023/01/25 10:39:13;;;;;;;44.67;23.13;;;0.80;99.90;;;;;;5079872;28;20415;-63
2023/01/25 10:41:44;;;;;;;49.00;24.05;;;0.60;99.90;;;;;;5075839;28;20430;-64
2023/01/25 10:44:24;;;;;;;44.88;22.55;;;0.70;99.90;;;;;;5084010;28;20417;-62
2023/01/25 10:47:03;;;;;;;43.28;22.92;;;0.80;99.90;;;;;;5087005;28;20414;-62
2023/01/25 10:49:40;;;;;;;45.30;23.40;;;0.90;99.90;;;;;;5082219;28;20406;-62
2023/01/25 10:52:17;;;;;;;44.70;22.38;;;0.90;99.90;;;;;;5074915;28;20410;-62
2023/01/25 10:54:45;;;;;;;44.88;23.58;;;0.80;99.90;;;;;;5079193;28;20412;-63
2023/01/25 10:57:17;;;;;;;43.55;22.40;;;0.80;99.90;;;;;;5078221;28;20423;-59
2023/01/25 10:59:46;;;;;;;43.08;22.42;;;0.90;99.90;;;;;;5078629;28;20506;-63
2023/01/25 11:02:40;;;;;;;52.60;25.48;;;0.60;99.90;;;;;;5077334;28;20868;-62
2023/01/25 11:05:32;;;;;;;55.13;25.98;;;0.40;99.90;;;;;;5078167;28;20779;-61
2023/01/25 11:08:21;;;;;;;58.20;27.35;;;0.20;99.90;;;;;;5077791;28;20419;-62
2023/01/25 11:10:48;;;;;;;55.45;26.40;;;0.40;99.90;;;;;;5074190;28;20488;-62
2023/01/25 11:13:24;;;;;;;49.55;24.63;;;0.60;99.90;;;;;;5081629;28;20419;-61
2023/01/25 11:15:54;;;;;;;48.55;24.20;;;0.70;99.90;;;;;;5080608;28;20417;-63
2023/01/25 11:18:24;;;;;;;46.53;23.95;;;0.60;99.90;;;;;;5082043;28;20419;-62
2023/01/25 11:21:07;;;;;;;48.25;24.88;;;0.60;99.90;;;;;;5077271;28;20905;-61
2023/01/25 11:23:35;;;;;;;49.15;25.55;;;0.50;99.90;;;;;;5083326;28;20414;-62
2023/01/25 11:26:13;;;;;;;51.23;25.13;;;0.60;99.90;;;;;;5077896;28;20423;-63
2023/01/25 11:28:40;;;;;;;57.92;27.67;;;0.40;99.90;;;;;;5081102;28;20407;-64
2023/01/25 11:31:12;;;;;;;56.50;27.85;;;0.10;99.90;;;;;;5075006;28;20430;-63
2023/01/25 11:33:40;;;;;;;59.20;27.63;;;0.20;99.90;;;;;;5079126;28;20416;-63
2023/01/25 11:36:18;;;;;;;58.83;29.52;;;0.20;99.90;;;;;;5084283;28;20417;-63
2023/01/25 11:38:58;;;;;;;56.30;28.80;;;0.30;99.90;;;;;;5078499;28;20898;-63
2023/01/25 11:41:32;;;;;;;51.53;27.73;;;0.60;99.90;;;;;;5074956;28;20451;-62
2023/01/25 11:44:14;;;;;;;54.65;27.15;;;0.60;99.90;;;;;;5081339;28;20421;-64
2023/01/25 11:46:55;;;;;;;53.22;28.13;;;0.80;99.90;;;;;;5078853;28;20412;-65
2023/01/25 11:49:40;;;;;;;56.88;28.08;;;0.80;99.90;;;;;;5082987;28;20862;-65
2023/01/25 11:52:22;;;;;;;53.85;28.33;;;0.80;99.90;;;;;;5077266;28;20786;-65
2023/01/25 11:54:59;;;;;;;58.03;29.85;;;0.70;99.90;;;;;;5067918;28;20950;-65
2023/01/25 11:57:47;;;;;;;48.55;26.75;;;0.80;99.90;;;;;;5072271;28;20421;-64
2023/01/25 12:00:29;;;;;;;56.33;29.60;;;0.90;99.90;;;;;;5076787;28;20910;-64
2023/01/25 12:03:20;;;;;;;55.10;28.85;;;0.70;99.90;;;;;;5070121;28;20423;-63
2023/01/25 12:05:59;;;;;;;52.85;28.42;;;0.80;99.90;;;;;;5074977;28;20417;-63
2023/01/25 12:08:58;;;;;;;57.23;29.40;;;0.70;99.90;;;;;;5074185;28;20420;-63
2023/01/25 12:11:39;;;;;;;56.55;29.80;;;0.60;99.90;;;;;;5069091;28;20905;-64
2023/01/25 12:14:13;;;;;;;59.03;31.30;;;0.50;99.90;;;;;;5077289;28;20418;-63
2023/01/25 12:16:51;;;;;;;59.58;32.17;;;0.40;99.90;;;;;;5072026;28;20422;-63
2023/01/25 12:19:32;;;;;;;58.63;32.08;;;0.30;99.90;;;;;;5071203;28;20416;-63
2023/01/25 12:22:15;;;;;;;58.30;32.73;;;0.60;99.90;;;;;;5079870;28;20522;-61
2023/01/25 12:24:50;;;;;;;52.55;29.20;;;0.80;99.90;;;;;;5081666;28;20422;-62
2023/01/25 12:27:33;;;;;;;52.67;29.55;;;0.80;99.90;;;;;;5069022;28;20819;-60
2023/01/25 12:30:11;;;;;;;53.00;29.42;;;0.80;99.90;;;;;;5072387;28;20417;-61
2023/01/25 12:32:44;;;;;;;52.38;29.20;;;0.70;99.90;;;;;;5068878;28;20412;-61
2023/01/25 12:35:25;;;;;;;52.20;29.45;;;0.70;99.90;;;;;;5075496;28;20421;-60
2023/01/25 12:38:00;;;;;;;53.22;30.50;;;0.60;99.90;;;;;;5080783;28;20406;-61
2023/01/25 12:40:42;;;;;;;52.72;29.75;;;0.70;99.90;;;;;;5081083;28;20414;-61
2023/01/25 12:43:15;;;;;;;56.38;29.92;;;0.60;99.90;;;;;;5078303;28;20539;-62
2023/01/25 12:45:46;;;;;;;55.83;31.63;;;0.70;99.90;;;;;;5084326;28;20418;-62
2023/01/25 12:48:17;;;;;;;56.40;30.55;;;0.70;99.90;;;;;;5078075;28;20434;-65
2023/01/25 12:50:50;;;;;;;56.78;31.33;;;0.70;99.90;;;;;;5071820;28;20411;-65
2023/01/25 12:53:21;;;;;;;57.90;31.25;;;0.80;99.90;;;;;;5074755;28;20419;-65